Time;durP1;ratioP1;P1;durP2;ratioP2;P2;SDS_P1;SDS_P2;PMS_P1;PMS_P2;Temp;Humidity;BMP_temperature;BMP_pressure;BME280_temperature;BME280_humidity;BME280_pressure;Samples;Min_cycle;Max_cycle;Signal;HPM_P1;HPM_P2
2022/11/03 00:01:46;;;;;;;8.82;1.95;;;;;;;7.97;83.68;101168.16;5020618;28;20521;-80
2022/11/03 00:04:16;;;;;;;2.05;1.02;;;;;;;8.01;83.08;101164.72;5031920;28;20071;-82
2022/11/03 00:06:46;;;;;;;3.22;1.88;;;;;;;8.05;82.89;101158.69;5036647;28;20044;-79
2022/11/03 00:09:16;;;;;;;3.20;1.60;;;;;;;8.09;82.76;101157.84;5016159;28;20066;-79
2022/11/03 00:11:47;;;;;;;8.40;1.80;;;;;;;8.14;83.17;101160.50;5040602;28;20049;-80
2022/11/03 00:14:17;;;;;;;6.47;1.95;;;;;;;8.11;82.56;101155.28;5026380;28;20053;-78
2022/11/03 00:16:44;;;;;;;4.22;1.90;;;;;;;8.11;83.02;101160.50;5026576;28;20052;-79
2022/11/03 00:19:13;;;;;;;6.35;1.58;;;;;;;8.07;82.90;101164.81;5031292;28;20052;-80
2022/11/03 00:21:41;;;;;;;4.13;1.38;;;;;;;8.06;83.36;101156.97;5012445;28;20045;-79
2022/11/03 00:24:08;;;;;;;8.52;1.30;;;;;;;8.03;83.83;101156.91;5013208;28;20053;-81
2022/11/03 00:26:36;;;;;;;2.63;1.38;;;;;;;8.03;83.50;101155.22;5044306;28;20170;-87
2022/11/03 00:29:09;;;;;;;7.88;2.05;;;;;;;8.00;83.67;101149.06;5017574;28;20060;-82
2022/11/03 00:31:40;;;;;;;4.50;1.70;;;;;;;7.97;83.97;101147.31;5015434;28;20076;-78
2022/11/03 00:34:11;;;;;;;4.88;1.35;;;;;;;8.00;83.91;101147.34;5036938;28;20110;-77
2022/11/03 00:36:46;;;;;;;13.23;1.88;;;;;;;8.03;83.63;101146.50;5024996;28;20053;-79
2022/11/03 00:39:15;;;;;;;9.27;1.90;;;;;;;8.00;83.59;101149.06;5031459;28;20052;-85
2022/11/03 00:41:41;;;;;;;4.50;1.33;;;;;;;8.01;83.84;101143.88;5045413;28;20050;-78
2022/11/03 00:44:09;;;;;;;4.30;1.30;;;;;;;8.00;84.02;101143.88;5016047;28;20061;-80
2022/11/03 00:46:36;;;;;;;6.00;1.55;;;;;;;7.99;83.75;101140.41;5015069;28;21084;-84
2022/11/03 00:49:04;;;;;;;7.47;1.48;;;;;;;8.00;84.19;101136.91;5012450;28;20048;-83
2022/11/03 00:51:33;;;;;;;7.45;1.35;;;;;;;8.00;84.11;101131.69;5017092;28;20069;-83
2022/11/03 00:54:03;;;;;;;6.60;1.80;;;;;;;7.98;84.21;101133.44;5019701;28;20484;-81
2022/11/03 00:56:43;;;;;;;3.35;1.38;;;;;;;7.99;84.15;101129.06;5038848;28;20108;-79
2022/11/03 00:59:11;;;;;;;7.78;1.45;;;;;;;8.02;84.50;101132.59;5052504;28;20041;-78
2022/11/03 01:01:44;;;;;;;4.07;1.10;;;;;;;8.03;84.14;101123.03;5043002;28;20095;-84
2022/11/03 01:07:01;;;;;;;4.65;1.00;;;;;;;8.09;84.21;101123.94;5045502;28;20032;-83
2022/11/03 01:09:30;;;;;;;5.80;1.45;;;;;;;8.08;83.81;101121.34;5043946;28;20084;-86
2022/11/03 01:12:13;;;;;;;8.93;1.92;;;;;;;8.10;84.29;101115.28;5016729;28;20055;-75
2022/11/03 01:14:47;;;;;;;10.40;1.60;;;;;;;8.14;84.13;101108.34;5016729;28;20052;-77
2022/11/03 01:17:27;;;;;;;5.57;1.63;;;;;;;8.20;83.29;101107.53;5018442;28;20483;-77
2022/11/03 01:19:55;;;;;;;3.97;1.85;;;;;;;8.19;83.39;101101.44;5027465;28;20091;-80
2022/11/03 01:22:25;;;;;;;4.93;1.70;;;;;;;8.25;83.50;101098.00;5030743;28;20037;-85
2022/11/03 01:24:56;;;;;;;6.95;1.27;;;;;;;8.27;83.15;101099.75;5029108;28;20057;-76
2022/11/03 01:27:24;;;;;;;3.65;1.25;;;;;;;8.31;83.10;101087.63;5026989;28;20099;-80
2022/11/03 01:29:51;;;;;;;5.45;2.08;;;;;;;8.32;83.40;101094.59;5024756;28;20041;-81
2022/11/03 01:32:19;;;;;;;6.40;1.10;;;;;;;8.28;83.37;101083.25;5026084;28;20048;-84
2022/11/03 01:34:45;;;;;;;2.22;1.23;;;;;;;8.30;83.05;101072.81;5024650;28;20480;-84
2022/11/03 01:37:12;;;;;;;3.33;1.63;;;;;;;8.27;83.26;101075.44;5027767;28;20051;-75
2022/11/03 01:39:39;;;;;;;3.90;1.30;;;;;;;8.28;83.68;101074.56;5024068;28;20338;-77
2022/11/03 01:42:12;;;;;;;3.97;1.38;;;;;;;8.28;83.53;101075.44;5049314;28;20057;-82
2022/11/03 01:44:48;;;;;;;6.47;1.45;;;;;;;8.34;83.36;101068.50;5054752;28;20047;-79
2022/11/03 01:47:24;;;;;;;6.43;1.42;;;;;;;8.35;83.54;101052.88;5039875;28;20079;-78
2022/11/03 01:50:06;;;;;;;5.47;1.00;;;;;;;8.32;83.25;101045.03;5037705;28;20052;-77
2022/11/03 01:52:43;;;;;;;7.55;1.55;;;;;;;8.32;83.38;101046.75;5032017;28;20048;-78
2022/11/03 01:55:17;;;;;;;3.45;1.30;;;;;;;8.31;83.48;101029.38;5050814;28;20102;-77
2022/11/03 01:58:00;;;;;;;7.55;1.67;;;;;;;8.31;83.83;101030.25;5029213;28;20049;-77
2022/11/03 02:00:27;;;;;;;5.88;1.15;;;;;;;8.34;83.71;101026.78;5036525;28;20041;-80
2022/11/03 02:02:55;;;;;;;3.83;1.30;;;;;;;8.36;83.80;101032.88;5047781;28;20056;-78
2022/11/03 02:05:24;;;;;;;4.78;1.70;;;;;;;8.38;83.34;101034.66;5034057;28;20484;-79
2022/11/03 02:08:19;;;;;;;4.40;1.67;;;;;;;8.51;83.05;101026.91;5029982;28;20049;-82
2022/11/03 02:10:51;;;;;;;5.18;1.15;;;;;;;8.53;82.63;101022.59;5029567;28;20077;-83
2022/11/03 02:13:22;;;;;;;6.97;1.60;;;;;;;8.54;82.56;101016.47;5034970;28;20041;-79
2022/11/03 02:15:53;;;;;;;5.53;1.48;;;;;;;8.54;82.57;101014.75;5033230;28;20056;-77
2022/11/03 02:18:25;;;;;;;3.88;1.13;;;;;;;8.51;82.29;101011.25;5045262;28;20117;-76
2022/11/03 02:21:27;;;;;;;6.70;1.88;;;;;;;8.49;82.21;101013.84;5012062;28;20099;-85
2022/11/03 02:24:15;;;;;;;5.78;1.45;;;;;;;8.43;82.40;101012.06;5033240;28;20045;-83
2022/11/03 02:26:48;;;;;;;11.50;1.77;;;;;;;8.42;83.06;101010.31;5035068;28;20055;-76
2022/11/03 02:29:16;;;;;;;4.07;1.10;;;;;;;8.47;82.54;101002.53;5036248;28;20067;-81
2022/11/03 02:31:52;;;;;;;3.47;1.27;;;;;;;8.46;82.62;100997.31;5034493;28;20045;-78
2022/11/03 02:34:52;;;;;;;5.88;1.25;;;;;;;8.46;82.68;101003.41;5033283;28;20045;-79
2022/11/03 02:37:29;;;;;;;6.55;1.35;;;;;;;8.42;82.40;101007.72;5031436;28;20143;-78
2022/11/03 02:40:09;;;;;;;4.25;1.02;;;;;;;8.39;82.78;100999.84;5018142;28;20068;-80
2022/11/03 02:42:41;;;;;;;3.60;1.52;;;;;;;8.38;82.96;100995.50;5049482;28;20469;-78
2022/11/03 02:45:13;;;;;;;2.65;1.23;;;;;;;8.33;83.15;100992.00;5031835;28;20041;-78
2022/11/03 02:47:42;;;;;;;6.75;1.58;;;;;;;8.25;83.30;100999.78;5021226;28;20379;-78
2022/11/03 02:50:12;;;;;;;6.10;1.30;;;;;;;8.25;83.66;100997.19;5019570;28;20103;-83
2022/11/03 02:52:51;;;;;;;7.53;1.83;;;;;;;8.33;83.64;100993.72;5039959;28;20049;-81
2022/11/03 02:55:38;;;;;;;10.05;1.48;;;;;;;8.37;83.27;100983.31;5039323;28;20100;-76
2022/11/03 02:58:36;;;;;;;3.25;1.45;;;;;;;8.38;83.31;100982.47;5025434;28;20439;-79
2022/11/03 03:01:17;;;;;;;10.82;1.75;;;;;;;8.39;83.10;100985.94;5045428;28;20121;-77
2022/11/03 03:03:55;;;;;;;4.15;1.63;;;;;;;8.38;82.62;100977.25;5042303;28;20120;-77
2022/11/03 03:06:46;;;;;;;4.93;1.00;;;;;;;8.39;82.58;100970.28;5029827;28;20099;-79
2022/11/03 03:09:21;;;;;;;3.67;1.10;;;;;;;8.39;82.77;100972.91;5054115;28;20402;-78
2022/11/03 03:11:51;;;;;;;5.57;1.45;;;;;;;8.39;82.58;100965.06;5017055;28;20064;-76
2022/11/03 03:14:42;;;;;;;2.08;1.20;;;;;;;8.39;82.73;100959.84;5037106;28;20135;-78
2022/11/03 03:17:58;;;;;;;4.80;1.60;;;;;;;8.37;82.70;100961.56;5051607;28;20053;-78
2022/11/03 03:20:44;;;;;;;9.23;2.13;;;;;;;8.33;82.75;100958.09;5027657;28;20063;-81
2022/11/03 03:23:20;;;;;;;7.35;2.17;;;;;;;8.31;83.24;100948.53;5035400;28;20064;-77
2022/11/03 03:26:14;;;;;;;9.27;2.22;;;;;;;8.35;83.08;100950.28;5028931;28;20140;-76
2022/11/03 03:28:51;;;;;;;4.78;1.08;;;;;;;8.31;83.23;100956.34;5026535;28;20053;-77
2022/11/03 03:31:19;;;;;;;5.18;1.80;;;;;;;8.26;83.33;100951.94;5019410;28;20049;-77
2022/11/03 03:33:49;;;;;;;6.60;1.45;;;;;;;8.22;83.48;100949.34;5033112;28;20472;-76
2022/11/03 03:36:18;;;;;;;7.43;2.20;;;;;;;8.18;83.99;100945.81;5034094;28;20115;-76
2022/11/03 03:38:53;;;;;;;6.75;1.50;;;;;;;8.10;83.84;100937.97;5035647;28;20409;-76
2022/11/03 03:41:24;;;;;;;5.70;1.27;;;;;;;8.06;84.71;100940.56;5031685;28;20491;-77
2022/11/03 03:43:57;;;;;;;8.73;2.15;;;;;;;8.04;84.88;100930.09;5035311;28;20432;-79
2022/11/03 03:46:32;;;;;;;3.42;1.23;;;;;;;8.01;85.12;100922.25;5026823;28;20044;-77
2022/11/03 03:48:59;;;;;;;10.73;1.70;;;;;;;8.01;84.78;100917.06;5038202;28;20056;-79
2022/11/03 03:51:29;;;;;;;7.40;1.63;;;;;;;8.03;85.13;100917.94;5029598;28;20037;-78
2022/11/03 03:53:57;;;;;;;6.25;1.85;;;;;;;8.05;84.77;100917.94;5029895;28;20038;-88
2022/11/03 03:56:40;;;;;;;6.93;1.20;;;;;;;8.01;84.95;100913.59;5032766;28;20053;-78
2022/11/03 03:59:07;;;;;;;6.55;2.42;;;;;;;8.03;84.74;100914.44;5045791;28;20522;-77
2022/11/03 04:01:34;;;;;;;6.65;1.48;;;;;;;8.03;85.19;100909.22;5013306;28;20049;-79
2022/11/03 04:04:01;;;;;;;4.78;1.42;;;;;;;8.01;85.04;100908.38;5033900;28;20444;-82
2022/11/03 04:06:29;;;;;;;6.63;1.45;;;;;;;7.96;85.17;100910.94;5041825;28;20068;-83
2022/11/03 04:08:56;;;;;;;5.93;1.15;;;;;;;7.91;85.50;100907.44;5037250;28;20540;-78
2022/11/03 04:22:31;;;;;;;3.83;1.02;;;;;;;7.87;86.31;100887.44;5032941;28;20048;-82
2022/11/03 04:24:59;;;;;;;1.25;1.02;;;;;;;7.86;86.14;100878.75;5022224;28;20041;-77
2022/11/03 04:27:36;;;;;;;3.78;1.65;;;;;;;7.85;86.21;100868.28;5044093;28;20044;-83
2022/11/03 04:30:18;;;;;;;5.47;1.20;;;;;;;7.82;86.47;100874.34;5027563;28;20126;-76
2022/11/03 04:32:49;;;;;;;7.93;1.27;;;;;;;7.81;86.33;100882.16;5024013;28;20448;-82
2022/11/03 04:35:25;;;;;;;6.35;1.60;;;;;;;7.78;86.51;100868.28;5042467;28;20064;-81
2022/11/03 04:38:01;;;;;;;6.13;1.13;;;;;;;7.76;87.07;100867.38;5056768;28;20041;-76
2022/11/03 04:40:32;;;;;;;10.30;1.90;;;;;;;7.76;87.23;100869.13;5047163;28;20068;-80
2022/11/03 04:42:58;;;;;;;6.90;1.20;;;;;;;7.76;87.21;100874.34;5044463;28;20096;-79
2022/11/03 04:45:37;;;;;;;5.93;1.65;;;;;;;7.73;86.98;100861.28;5029069;28;20523;-76
2022/11/03 04:48:14;;;;;;;8.73;2.67;;;;;;;7.77;87.52;100850.88;5041774;28;20122;-77
2022/11/03 04:50:42;;;;;;;4.95;1.15;;;;;;;7.75;87.35;100856.97;5043450;28;20105;-80
2022/11/03 04:53:16;;;;;;;4.70;1.30;;;;;;;7.78;87.32;100860.47;5030710;28;20052;-80
2022/11/03 04:55:54;;;;;;;4.55;1.23;;;;;;;7.77;87.42;100858.72;5029560;28;20048;-76
2022/11/03 04:58:30;;;;;;;4.78;0.98;;;;;;;7.75;87.54;100855.22;5040233;28;20057;-78
2022/11/03 05:00:59;;;;;;;3.80;1.48;;;;;;;7.76;87.50;100848.28;5033743;28;20204;-77
2022/11/03 05:03:32;;;;;;;5.05;1.70;;;;;;;7.76;87.83;100848.28;5054882;28;20037;-79
2022/11/03 05:06:02;;;;;;;5.65;1.58;;;;;;;7.77;87.54;100850.03;5034574;28;20045;-78
2022/11/03 05:08:29;;;;;;;5.45;1.30;;;;;;;7.81;87.58;100843.06;5032252;28;20152;-78
2022/11/03 05:10:57;;;;;;;5.90;1.13;;;;;;;7.84;87.78;100843.97;5034499;28;20063;-77
2022/11/03 05:13:33;;;;;;;2.25;1.25;;;;;;;7.84;87.95;100843.13;5019933;28;20041;-76
2022/11/03 05:16:08;;;;;;;7.72;1.98;;;;;;;7.87;87.40;100843.13;5033211;28;20045;-79
2022/11/03 05:18:43;;;;;;;3.92;1.67;;;;;;;7.84;87.65;100833.53;5035320;28;20046;-78
2022/11/03 05:21:22;;;;;;;7.80;1.77;;;;;;;7.85;87.53;100839.63;5049292;28;20072;-80
2022/11/03 05:23:59;;;;;;;6.60;2.03;;;;;;;7.86;87.98;100831.84;5037776;28;20045;-84
2022/11/03 05:26:34;;;;;;;7.60;1.55;;;;;;;7.84;87.86;100830.94;5020312;28;20037;-86
2022/11/03 05:29:19;;;;;;;8.23;2.05;;;;;;;7.84;88.07;100832.69;5018762;28;20051;-79
2022/11/03 05:31:48;;;;;;;7.60;2.20;;;;;;;7.81;88.08;100819.63;5038577;28;20041;-83
2022/11/03 05:34:30;;;;;;;7.43;2.20;;;;;;;7.83;88.43;100826.59;5034552;28;20175;-77
2022/11/03 05:37:15;;;;;;;6.20;1.63;;;;;;;7.80;88.61;100826.59;5043157;28;20522;-82
2022/11/03 05:39:46;;;;;;;2.78;1.30;;;;;;;7.82;88.55;100810.94;5047874;28;20052;-78
2022/11/03 05:42:34;;;;;;;4.80;1.60;;;;;;;7.84;88.59;100817.06;5047348;28;20127;-80
2022/11/03 05:45:21;;;;;;;3.83;1.42;;;;;;;7.85;88.56;100810.94;5050432;28;20083;-82
2022/11/03 05:47:52;;;;;;;3.53;1.42;;;;;;;7.86;88.45;100820.50;5032341;28;20049;-81
2022/11/03 05:50:29;;;;;;;6.45;1.50;;;;;;;7.84;88.83;100815.31;5013434;28;20431;-81
2022/11/03 05:53:11;;;;;;;3.70;1.58;;;;;;;7.86;88.88;100813.59;5029935;28;20041;-82
2022/11/03 05:55:41;;;;;;;7.40;3.38;;;;;;;7.87;88.88;100815.31;5028564;28;20458;-77
2022/11/03 05:58:23;;;;;;;11.50;3.78;;;;;;;7.87;89.50;100820.53;5030654;28;20784;-79
2022/11/03 06:00:53;;;;;;;11.77;4.82;;;;;;;7.84;89.17;100812.69;5030323;28;20037;-78
2022/11/03 06:03:33;;;;;;;11.63;4.05;;;;;;;7.84;89.46;100811.84;5027325;28;20041;-78
2022/11/03 06:06:05;;;;;;;8.05;4.43;;;;;;;7.84;89.75;100812.69;5028920;28;20041;-76
2022/11/03 06:08:38;;;;;;;9.77;2.67;;;;;;;7.85;89.65;100813.56;5030603;28;20869;-78
2022/11/03 06:11:04;;;;;;;7.07;3.37;;;;;;;7.84;90.09;100807.47;5012561;28;20683;-89
2022/11/03 06:13:39;;;;;;;7.65;2.90;;;;;;;7.86;89.78;100807.47;5028823;28;20112;-77
2022/11/03 06:16:43;;;;;;;5.88;2.35;;;;;;;7.84;90.63;100804.88;5026930;28;20049;-79
2022/11/03 06:19:21;;;;;;;4.13;2.90;;;;;;;7.81;90.64;100806.59;5028667;28;20129;-80
2022/11/03 06:21:53;;;;;;;17.48;3.55;;;;;;;7.76;90.58;100804.84;5042053;28;20152;-78
2022/11/03 06:24:24;;;;;;;9.38;3.38;;;;;;;7.75;91.06;100800.47;5030967;28;20041;-84
2022/11/03 06:26:52;;;;;;;8.05;2.40;;;;;;;7.73;91.17;100806.56;5028817;28;20045;-82
2022/11/03 06:29:21;;;;;;;5.10;2.08;;;;;;;7.73;91.51;100799.63;5031517;28;20052;-79
2022/11/03 06:31:50;;;;;;;8.23;2.33;;;;;;;7.72;91.64;100795.28;5013132;28;20057;-77
2022/11/03 06:34:46;;;;;;;7.05;1.90;;;;;;;7.78;92.72;100791.81;5034956;28;20563;-76
2022/11/03 06:37:31;;;;;;;4.75;2.00;;;;;;;7.80;92.25;100797.06;5030590;28;20061;-77
2022/11/03 06:40:02;;;;;;;6.68;1.95;;;;;;;7.81;92.28;100789.25;5032127;28;20052;-81
2022/11/03 06:42:32;;;;;;;7.47;2.13;;;;;;;7.86;92.42;100787.53;5036102;28;20051;-76
2022/11/03 06:45:01;;;;;;;5.60;2.53;;;;;;;7.91;92.40;100798.84;5035955;28;20476;-77
2022/11/03 06:47:29;;;;;;;5.40;1.95;;;;;;;7.93;92.25;100793.63;5049085;28;20048;-80
2022/11/03 06:49:58;;;;;;;5.88;2.15;;;;;;;7.97;92.27;100791.91;5038305;28;20041;-80
2022/11/03 06:52:38;;;;;;;2.17;1.63;;;;;;;7.99;92.39;100780.63;5052600;28;20555;-82
2022/11/03 06:55:07;;;;;;;4.80;2.20;;;;;;;7.99;92.96;100783.22;5033063;28;20068;-85
2022/11/03 06:57:39;;;;;;;9.32;1.80;;;;;;;8.00;92.40;100776.28;5034972;28;20077;-81
2022/11/03 07:00:21;;;;;;;8.50;2.38;;;;;;;7.98;92.62;100772.78;5052285;28;20045;-79
2022/11/03 07:03:01;;;;;;;7.25;3.45;;;;;;;7.98;92.48;100770.16;5051745;28;20045;-79
2022/11/03 07:05:30;;;;;;;9.45;2.20;;;;;;;7.99;92.43;100769.31;5040778;28;20132;-80
2022/11/03 07:08:02;;;;;;;5.75;1.80;;;;;;;8.02;92.44;100769.34;5023672;28;20089;-76
2022/11/03 07:10:32;;;;;;;12.43;2.47;;;;;;;8.05;92.44;100764.13;5034737;28;20386;-75
2022/11/03 07:13:06;;;;;;;2.67;1.70;;;;;;;8.07;92.44;100765.88;5043893;28;20536;-77
2022/11/03 07:15:38;;;;;;;6.03;1.80;;;;;;;8.06;92.04;100766.72;5053448;28;20123;-79
2022/11/03 07:18:23;;;;;;;4.50;3.20;;;;;;;8.12;92.31;100758.03;5034101;28;20519;-79
2022/11/03 07:20:52;;;;;;;7.53;3.20;;;;;;;8.16;92.32;100762.44;5033050;28;20541;-77
2022/11/03 07:23:24;;;;;;;6.90;2.38;;;;;;;8.21;92.05;100757.22;5018398;28;20099;-78
2022/11/03 07:25:58;;;;;;;6.32;1.48;;;;;;;8.25;91.96;100764.16;5019337;28;20041;-81
2022/11/03 07:28:32;;;;;;;8.88;2.83;;;;;;;8.31;92.00;100764.19;5042626;28;20048;-78
2022/11/03 07:31:01;;;;;;;12.07;2.67;;;;;;;8.35;91.74;100759.84;5035989;28;20384;-78
2022/11/03 07:33:30;;;;;;;5.72;1.80;;;;;;;8.42;91.61;100753.75;5032848;28;20056;-78
2022/11/03 07:36:02;;;;;;;7.95;1.65;;;;;;;8.47;91.37;100746.84;5033454;28;20037;-80
2022/11/03 07:38:37;;;;;;;9.50;2.55;;;;;;;8.56;90.86;100751.22;5051489;28;20128;-76
2022/11/03 07:41:04;;;;;;;12.00;1.98;;;;;;;8.65;90.14;100746.00;5048817;28;20068;-77
2022/11/03 07:43:37;;;;;;;6.40;1.77;;;;;;;8.73;89.85;100743.41;5015682;28;20049;-75
2022/11/03 07:46:05;;;;;;;6.45;1.73;;;;;;;8.79;90.03;100732.97;5006739;28;20053;-80
2022/11/03 07:48:41;;;;;;;7.90;2.08;;;;;;;8.85;89.54;100735.56;5028398;28;20052;-76
2022/11/03 07:51:39;;;;;;;9.52;3.15;;;;;;;8.94;89.25;100726.84;5054634;28;20055;-77
2022/11/03 07:54:10;;;;;;;7.65;1.30;;;;;;;9.01;88.56;100723.38;5049064;28;20048;-77
2022/11/03 07:56:45;;;;;;;7.78;2.20;;;;;;;9.07;88.30;100725.97;5034654;28;20046;-79
2022/11/03 07:59:20;;;;;;;3.90;1.60;;;;;;;9.14;88.12;100711.16;5016095;28;20056;-77
2022/11/03 08:01:53;;;;;;;4.95;1.67;;;;;;;9.21;88.33;100712.00;5031891;28;20048;-77
2022/11/03 08:04:33;;;;;;;6.00;1.83;;;;;;;9.29;87.67;100712.00;5026556;28;20037;-76
2022/11/03 08:07:00;;;;;;;7.03;2.17;;;;;;;9.36;87.37;100708.47;5032667;28;20361;-78
2022/11/03 08:09:30;;;;;;;6.55;1.88;;;;;;;9.40;86.98;100697.16;5027523;28;20045;-77
2022/11/03 08:11:56;;;;;;;7.80;2.28;;;;;;;9.44;86.25;100697.13;5065404;28;20053;-82
2022/11/03 08:14:27;;;;;;;7.28;2.17;;;;;;;9.50;86.43;100698.84;5033967;28;20072;-76
2022/11/03 08:16:53;;;;;;;9.20;2.30;;;;;;;9.54;86.05;100692.75;5035335;28;20041;-84
2022/11/03 08:19:20;;;;;;;4.55;1.90;;;;;;;9.59;86.00;100687.50;5034971;28;20198;-77
2022/11/03 08:21:46;;;;;;;6.05;1.88;;;;;;;9.65;85.59;100692.69;5030580;28;20060;-78
2022/11/03 08:24:13;;;;;;;3.40;1.75;;;;;;;9.68;85.57;100687.44;5033431;28;20184;-82
2022/11/03 08:26:39;;;;;;;7.90;2.15;;;;;;;9.73;84.95;100677.84;5052337;28;20109;-77
2022/11/03 08:29:06;;;;;;;16.90;2.97;;;;;;;9.81;84.81;100676.94;5033390;28;20051;-78
2022/11/03 08:31:32;;;;;;;8.65;1.30;;;;;;;9.85;84.57;100676.03;5037800;28;20048;-80
2022/11/03 08:33:59;;;;;;;7.38;1.88;;;;;;;9.91;83.65;100665.56;5034834;28;20501;-79
2022/11/03 08:36:26;;;;;;;3.78;1.75;;;;;;;9.96;83.64;100657.66;5040937;28;20524;-77
2022/11/03 08:38:56;;;;;;;3.92;1.20;;;;;;;9.97;83.41;100659.41;5034429;28;20040;-80
2022/11/03 08:41:23;;;;;;;4.50;1.30;;;;;;;9.98;83.21;100653.31;5051620;28;20048;-77
2022/11/03 08:43:49;;;;;;;6.97;1.77;;;;;;;10.03;83.29;100643.69;5033835;28;20069;-80
2022/11/03 08:46:16;;;;;;;6.78;1.95;;;;;;;10.06;83.20;100644.53;5019922;28;20423;-76
2022/11/03 08:48:42;;;;;;;9.18;1.90;;;;;;;10.13;82.59;100641.88;5013582;28;20056;-79
2022/11/03 08:51:09;;;;;;;7.50;2.35;;;;;;;10.18;82.56;100638.34;5038951;28;20131;-76
2022/11/03 08:53:37;;;;;;;4.00;1.63;;;;;;;10.27;82.38;100638.28;5043625;28;20037;-79
2022/11/03 08:56:04;;;;;;;5.07;1.02;;;;;;;10.37;81.35;100630.38;5049894;28;20035;-76
2022/11/03 08:58:31;;;;;;;7.05;2.00;;;;;;;10.47;80.98;100629.41;5028605;28;20033;-77
2022/11/03 09:00:57;;;;;;;5.95;1.85;;;;;;;10.50;81.21;100624.16;5034469;28;20049;-77
2022/11/03 09:03:24;;;;;;;5.00;1.73;;;;;;;10.53;80.82;100618.91;5043715;28;20134;-76
2022/11/03 09:05:51;;;;;;;5.35;1.80;;;;;;;10.57;80.75;100617.09;5030592;28;20045;-82
2022/11/03 09:08:17;;;;;;;11.68;2.47;;;;;;;10.57;80.78;100610.13;5030121;28;20160;-77
2022/11/03 09:10:44;;;;;;;3.80;1.27;;;;;;;10.56;80.17;100600.53;5012702;28;20743;-79
2022/11/03 09:13:11;;;;;;;6.70;1.52;;;;;;;10.55;80.52;100604.03;5028873;28;20049;-75
2022/11/03 09:15:37;;;;;;;5.28;1.55;;;;;;;10.54;80.33;100604.06;5029551;28;20033;-77
2022/11/03 09:18:04;;;;;;;3.53;1.67;;;;;;;10.57;80.28;100604.91;5030324;28;20040;-79
2022/11/03 09:20:30;;;;;;;5.72;1.63;;;;;;;10.60;80.47;100601.38;5031396;28;20040;-79
2022/11/03 09:22:57;;;;;;;3.42;1.33;;;;;;;10.63;80.44;100592.63;5034917;28;20424;-79
2022/11/03 09:25:23;;;;;;;4.70;1.40;;;;;;;10.67;80.46;100589.09;5032155;28;20052;-75
2022/11/03 09:27:50;;;;;;;7.15;2.47;;;;;;;10.72;80.05;100592.53;5029947;28;20041;-80
2022/11/03 09:30:17;;;;;;;10.07;2.42;;;;;;;10.79;79.96;100588.09;5030250;28;20129;-81
2022/11/03 09:32:44;;;;;;;6.25;2.47;;;;;;;10.88;79.35;100588.84;5049363;28;20052;-78
2022/11/03 09:35:13;;;;;;;9.40;1.60;;;;;;;11.04;79.00;100584.31;5026085;28;20071;-77
2022/11/03 09:37:40;;;;;;;7.85;2.67;;;;;;;11.21;78.49;100575.34;5032139;28;20065;-78
2022/11/03 09:40:08;;;;;;;7.40;1.55;;;;;;;11.35;77.92;100578.66;5049794;28;20055;-76
2022/11/03 09:42:37;;;;;;;6.30;2.22;;;;;;;11.49;77.19;100573.25;5038269;28;20125;-80
2022/11/03 09:45:04;;;;;;;8.05;1.30;;;;;;;11.51;76.79;100579.34;5054428;28;20057;-80
2022/11/03 09:47:37;;;;;;;4.53;1.45;;;;;;;11.58;76.71;100569.63;5043817;28;20053;-80
2022/11/03 09:50:07;;;;;;;6.68;1.85;;;;;;;11.64;76.46;100572.19;5040266;28;20141;-89
2022/11/03 09:52:36;;;;;;;8.32;1.90;;;;;;;11.72;76.22;100553.69;5038372;28;20103;-81
2022/11/03 09:55:03;;;;;;;8.63;1.83;;;;;;;11.74;75.91;100537.03;5040732;28;20222;-76
2022/11/03 09:57:30;;;;;;;6.72;2.10;;;;;;;11.80;76.17;100501.09;5041460;28;20049;-78
2022/11/03 09:59:56;;;;;;;3.63;1.60;;;;;;;11.81;75.68;100513.34;5026066;28;20050;-77
2022/11/03 10:02:29;;;;;;;3.00;1.25;;;;;;;11.87;76.10;100528.97;5045365;28;20049;-81
2022/11/03 10:04:59;;;;;;;5.60;1.27;;;;;;;11.92;75.94;100500.91;5032142;28;20099;-79
2022/11/03 10:07:28;;;;;;;5.07;1.45;;;;;;;11.86;76.12;100514.13;5039913;28;20055;-77
2022/11/03 10:09:58;;;;;;;7.38;1.55;;;;;;;11.85;76.07;100526.38;5037652;28;20506;-76
2022/11/03 10:12:26;;;;;;;7.07;1.40;;;;;;;11.85;76.30;100525.50;5043919;28;20147;-77
2022/11/03 10:14:54;;;;;;;5.63;1.77;;;;;;;11.80;76.37;100515.09;5053597;28;20524;-79
2022/11/03 10:17:26;;;;;;;7.95;1.77;;;;;;;11.80;76.94;100516.84;5054129;28;20045;-79
2022/11/03 10:19:56;;;;;;;8.43;2.00;;;;;;;11.79;76.70;100512.50;5035623;28;20049;-83
2022/11/03 10:22:24;;;;;;;10.10;2.83;;;;;;;11.77;76.78;100503.78;5034356;28;20119;-82
2022/11/03 10:25:34;;;;;;;3.65;1.67;;;;;;;11.70;76.69;100514.38;5032656;28;20108;-75
2022/11/03 10:28:23;;;;;;;5.10;1.70;;;;;;;11.69;77.28;100509.16;5038069;28;20037;-78
2022/11/03 10:30:51;;;;;;;5.60;1.83;;;;;;;11.75;76.88;100509.91;5022369;28;20053;-78
2022/11/03 10:33:54;;;;;;;6.90;2.33;;;;;;;11.83;76.49;100519.44;5015590;28;20045;-88
2022/11/03 10:36:23;;;;;;;7.50;1.60;;;;;;;11.83;76.44;100515.03;5037779;28;20136;-78
2022/11/03 10:38:50;;;;;;;5.10;1.48;;;;;;;11.87;76.57;100515.88;5015433;28;20049;-78
2022/11/03 10:41:18;;;;;;;5.75;1.60;;;;;;;11.95;76.06;100513.13;5044411;28;20479;-83
2022/11/03 10:44:02;;;;;;;5.75;1.55;;;;;;;11.98;76.10;100505.22;5044465;28;20049;-84
2022/11/03 10:46:32;;;;;;;6.25;1.35;;;;;;;12.03;75.90;100511.25;5031317;28;20603;-79
2022/11/03 10:49:12;;;;;;;6.28;1.80;;;;;;;12.09;75.65;100505.91;5028368;28;20041;-83
2022/11/03 10:51:40;;;;;;;6.65;1.50;;;;;;;12.17;75.66;100495.28;5045336;28;20048;-81
2022/11/03 10:54:13;;;;;;;5.13;1.30;;;;;;;12.31;75.12;100490.63;5029830;28;20515;-76
2022/11/03 10:56:40;;;;;;;5.18;1.75;;;;;;;12.35;74.65;100487.06;5022843;28;20593;-78
2022/11/03 10:59:17;;;;;;;5.75;2.35;;;;;;;12.46;74.36;100480.72;5031908;28;20047;-86
2022/11/03 11:01:43;;;;;;;5.90;1.42;;;;;;;12.48;73.62;100479.81;5032071;28;20068;-77
2022/11/03 11:04:15;;;;;;;7.72;1.30;;;;;;;12.46;74.01;100472.84;5026142;28;20050;-82
2022/11/03 11:06:42;;;;;;;5.75;2.58;;;;;;;12.48;73.84;100469.31;5037968;28;20131;-78
2022/11/03 11:09:12;;;;;;;6.15;1.38;;;;;;;12.47;73.83;100466.72;5043595;28;20612;-77
2022/11/03 11:11:39;;;;;;;4.07;1.45;;;;;;;12.46;74.26;100465.84;5029762;28;20504;-79
2022/11/03 11:14:26;;;;;;;5.57;1.50;;;;;;;12.43;74.07;100451.94;5016392;28;20067;-78
2022/11/03 11:16:54;;;;;;;7.28;1.30;;;;;;;12.37;74.68;100453.78;5043019;28;20519;-79
2022/11/03 11:19:23;;;;;;;11.30;1.83;;;;;;;12.37;74.65;100448.53;5028461;28;20403;-79
2022/11/03 11:21:53;;;;;;;8.38;2.13;;;;;;;12.41;74.49;100442.31;5029839;28;20045;-80
2022/11/03 11:24:45;;;;;;;5.57;1.75;;;;;;;12.44;74.37;100449.25;5023897;28;20045;-78
2022/11/03 11:27:30;;;;;;;6.82;2.35;;;;;;;12.40;74.68;100416.94;5026497;28;20079;-85
2022/11/03 11:29:58;;;;;;;4.13;1.58;;;;;;;12.40;74.83;100409.06;5027944;28;20041;-86
2022/11/03 11:32:37;;;;;;;9.35;1.75;;;;;;;12.47;74.57;100404.56;5031189;28;20049;-77
2022/11/03 11:35:04;;;;;;;4.25;1.80;;;;;;;12.43;74.96;100405.53;5035870;28;20044;-79
2022/11/03 11:37:30;;;;;;;6.03;2.50;;;;;;;12.53;74.70;100387.84;5027336;28;20052;-83
2022/11/03 11:39:57;;;;;;;6.63;1.85;;;;;;;12.58;74.41;100385.97;5048264;28;20052;-79
2022/11/03 11:42:23;;;;;;;4.03;2.03;;;;;;;12.64;73.99;100370.06;5016083;28;20076;-83
2022/11/03 11:45:01;;;;;;;7.38;2.08;;;;;;;12.67;74.17;100369.13;5033039;28;20068;-78
2022/11/03 11:47:40;;;;;;;10.48;2.00;;;;;;;12.69;73.97;100372.59;5023163;28;20045;-77
2022/11/03 11:50:08;;;;;;;13.82;2.92;;;;;;;12.73;74.03;100355.88;5051664;28;20515;-78
2022/11/03 11:52:58;;;;;;;3.70;1.95;;;;;;;12.78;74.04;100368.91;5050641;28;20041;-81
2022/11/03 11:55:24;;;;;;;4.95;1.95;;;;;;;12.78;73.99;100364.50;5051943;28;20076;-75
2022/11/03 11:57:52;;;;;;;5.43;1.67;;;;;;;12.79;74.27;100357.47;5034710;28;20041;-79
2022/11/03 12:00:26;;;;;;;4.35;1.60;;;;;;;12.82;74.03;100347.78;5032463;28;20419;-80
2022/11/03 12:02:53;;;;;;;;;;;;;;;12.80;73.87;100352.22;5040462;28;20041;-77
2022/11/03 12:05:28;;;;;;;4.55;2.15;;;;;;;12.84;73.98;100346.00;5031355;28;19924;-76
2022/11/03 12:07:55;;;;;;;7.40;2.15;;;;;;;12.90;73.92;100334.47;5050067;28;20045;-84
2022/11/03 12:10:30;;;;;;;7.38;2.03;;;;;;;12.94;73.44;100333.47;5036026;28;20047;-77
2022/11/03 12:12:59;;;;;;;6.57;1.95;;;;;;;12.94;73.67;100322.97;5032246;28;20398;-77